^^
Vremenska postaja Bezina
 
Daily Summary for July 18, 2018 Units:  Metric    English   Both
Daily Weekly Monthly Yearly Custom
  Current: High: Low: Average:
Temperature: 22.3 °C 22.3 °C 14.7 °C 19.7 °C
Dew Point: 12.8 °C 13.4 °C 11.1 °C 12 °C
Humidity: 55% 91% 53% 62%
Wind Speed: 1.6km/h 11.3km/h 0.0km/h 4.9km/h
Wind Gust: 16.1km/h 24.1km/h - -
WindNNW - - WSW
Pressure: 1012.1 hPa 1012.1 hPa 1011.2 hPa -
Precipitation: 0.0 mm      
Historical Graphs
 
 
Tabular Data for July 18, 2018
Time Temperature Dew Point Pressure Wind Wind Speed Wind Gust Humidity Rainfall Rate (Hourly)
00:15 15.0 °C 13.4 °C 1011.3 hPa Calm   1.6 km/h 90% 0.0 mm
00:30 14.8 °C 13.2 °C 1011.4 hPa NNW 1.6 km/h 3.2 km/h 90% 0.0 mm
00:45 14.7 °C 13.3 °C 1011.4 hPa Calm   3.2 km/h 91% 0.0 mm
01:00 14.7 °C 13.2 °C 1011.5 hPa Calm   3.2 km/h 91% 0.0 mm
01:15 15.5 °C 12.6 °C 1011.5 hPa NW 3.2 km/h 6.4 km/h 83% 0.0 mm
01:30 17.8 °C 12.5 °C 1011.5 hPa West 4.8 km/h 11.3 km/h 71% 0.0 mm
01:45 20.2 °C 12.2 °C 1011.5 hPa West 11.3 km/h 24.1 km/h 60% 0.0 mm
02:00 20.4 °C 11.9 °C 1011.5 hPa West 3.2 km/h 12.9 km/h 58% 0.0 mm
02:15 20.6 °C 11.7 °C 1011.6 hPa SW 8.0 km/h 11.3 km/h 57% 0.0 mm
02:30 20.3 °C 12.1 °C 1011.6 hPa WNW 3.2 km/h 8.0 km/h 59% 0.0 mm
02:45 19.8 °C 12.8 °C 1011.4 hPa Calm   6.4 km/h 64% 0.0 mm
03:00 19.3 °C 11.9 °C 1011.3 hPa West 4.8 km/h 9.7 km/h 62% 0.0 mm
03:15 20.4 °C 11.6 °C 1011.3 hPa SSW 9.7 km/h 20.9 km/h 57% 0.0 mm
03:30 20.7 °C 11.3 °C 1011.2 hPa SW 9.7 km/h 19.3 km/h 55% 0.0 mm
03:45 20.8 °C 11.4 °C 1011.2 hPa WNW 6.4 km/h 24.1 km/h 55% 0.0 mm
04:00 21.1 °C 11.4 °C 1011.2 hPa WSW 8.0 km/h 17.7 km/h 54% 0.0 mm
04:15 21.2 °C 11.2 °C 1011.4 hPa WSW 6.4 km/h 17.7 km/h 53% 0.0 mm
04:30 21.2 °C 11.5 °C 1011.2 hPa WSW 9.7 km/h 19.3 km/h 54% 0.0 mm
04:45 20.9 °C 11.3 °C 1011.3 hPa SSW 3.2 km/h 9.7 km/h 54% 0.0 mm
05:00 20.8 °C 11.1 °C 1011.4 hPa SSE 8.0 km/h 14.5 km/h 54% 0.0 mm
05:15 20.6 °C 11.2 °C 1011.5 hPa SSW 8.0 km/h 11.3 km/h 55% 0.0 mm
05:30 20.3 °C 11.3 °C 1011.6 hPa SW 6.4 km/h 12.9 km/h 56% 0.0 mm
05:45 20.2 °C 11.1 °C 1011.7 hPa West 8.0 km/h 11.3 km/h 56% 0.0 mm
06:00 20.3 °C 11.2 °C 1011.6 hPa NE 1.6 km/h 9.7 km/h 56% 0.0 mm
06:15 20.1 °C 12.6 °C 1011.6 hPa SSW 1.6 km/h 4.8 km/h 62% 0.0 mm
06:30 19.8 °C 11.6 °C 1011.5 hPa WSW 6.4 km/h 17.7 km/h 59% 0.0 mm
06:45 20.6 °C 11.4 °C 1011.5 hPa WSW 6.4 km/h 16.1 km/h 56% 0.0 mm
07:00 21.0 °C 12.2 °C 1011.5 hPa NW 4.8 km/h 14.5 km/h 57% 0.0 mm
07:15 21.2 °C 11.8 °C 1011.7 hPa NW 1.6 km/h 9.7 km/h 55% 0.0 mm
07:30 21.3 °C 12.4 °C 1011.8 hPa NW 4.8 km/h 11.3 km/h 57% 0.0 mm
07:45 21.3 °C 12.2 °C 1011.9 hPa SW 3.2 km/h 8.0 km/h 56% 0.0 mm
08:00 21.9 °C 12.2 °C 1011.9 hPa WSW 6.4 km/h 20.9 km/h 54% 0.0 mm
08:15 22.3 °C 12.8 °C 1012.1 hPa NNW 1.6 km/h 16.1 km/h 55% 0.0 mm
Juneau County Weather
Compliments of Weather Underground - 1.5 mb